createdAt,value
2022-10-04T00:01:58.635Z,13.55
2022-10-04T00:05:03.364Z,14.75
2022-10-04T00:07:53.553Z,14.30
2022-10-04T00:10:29.196Z,17.33
2022-10-04T00:13:01.052Z,18.77
2022-10-04T00:15:37.522Z,13.48
2022-10-04T00:18:21.001Z,19.73
2022-10-04T00:20:53.402Z,15.00
2022-10-04T00:23:24.279Z,12.70
2022-10-04T00:25:55.171Z,20.45
2022-10-04T00:28:25.855Z,17.77
2022-10-04T00:31:14.658Z,11.13
2022-10-04T00:34:04.325Z,21.70
2022-10-04T00:36:44.545Z,17.48
2022-10-04T00:39:14.594Z,17.80
2022-10-04T00:41:47.959Z,19.15
2022-10-04T00:44:43.053Z,12.60
2022-10-04T00:47:19.968Z,17.92
2022-10-04T00:49:52.514Z,19.63
2022-10-04T00:52:26.476Z,15.95
2022-10-04T00:55:02.288Z,12.40
2022-10-04T00:57:40.597Z,16.30
2022-10-04T01:00:16.798Z,16.98
2022-10-04T01:03:04.219Z,29.00
2022-10-04T01:05:34.530Z,16.63
2022-10-04T01:08:05.047Z,15.60
2022-10-04T01:10:47.144Z,16.10
2022-10-04T01:13:28.783Z,14.52
2022-10-04T01:16:11.611Z,14.57
2022-10-04T01:18:39.816Z,14.77
2022-10-04T01:21:19.901Z,18.58
2022-10-04T01:23:49.025Z,15.52
2022-10-04T01:26:34.897Z,17.25
2022-10-04T01:29:08.307Z,14.23
2022-10-04T01:31:42.977Z,14.98
2022-10-04T01:34:15.233Z,21.85
2022-10-04T01:36:47.353Z,19.85
2022-10-04T01:39:17.048Z,16.60
2022-10-04T01:41:47.715Z,16.30
2022-10-04T01:44:22.543Z,23.20
2022-10-04T01:46:52.078Z,18.92
2022-10-04T01:49:27.060Z,15.57
2022-10-04T01:52:25.483Z,16.67
2022-10-04T01:55:01.637Z,19.48
2022-10-04T01:57:46.902Z,17.58
2022-10-04T02:00:15.944Z,18.92
2022-10-04T02:02:54.054Z,17.23
2022-10-04T02:05:37.815Z,19.85
2022-10-04T02:08:09.642Z,16.85
2022-10-04T02:10:43.296Z,21.73
2022-10-04T02:13:15.803Z,20.10
2022-10-04T02:15:44.860Z,18.98
2022-10-04T02:18:14.724Z,19.77
2022-10-04T02:20:44.137Z,21.10
2022-10-04T02:23:12.932Z,25.30
2022-10-04T02:25:40.629Z,28.85
2022-10-04T02:28:14.127Z,25.42
2022-10-04T02:33:12.279Z,23.45
2022-10-04T02:35:48.332Z,23.00
2022-10-04T02:38:23.059Z,30.17
2022-10-04T02:40:57.753Z,27.85
2022-10-04T02:43:34.707Z,26.75
2022-10-04T02:46:22.075Z,26.90
2022-10-04T02:48:58.710Z,22.58
2022-10-04T02:51:52.482Z,19.95
2022-10-04T02:54:20.062Z,23.25
2022-10-04T02:56:53.442Z,29.05
2022-10-04T02:59:22.039Z,21.33
2022-10-04T03:01:53.563Z,22.15
2022-10-04T03:04:25.932Z,20.27
2022-10-04T03:06:56.090Z,26.00
2022-10-04T03:09:29.689Z,25.35
2022-10-04T03:11:58.037Z,21.27
2022-10-04T03:14:29.030Z,22.65
2022-10-04T03:17:00.793Z,23.33
2022-10-04T03:19:31.283Z,24.77
2022-10-04T03:22:04.746Z,19.92
2022-10-04T03:24:37.216Z,21.92
2022-10-04T03:27:09.047Z,17.60
2022-10-04T03:29:41.135Z,19.77
2022-10-04T03:32:14.093Z,24.77
2022-10-04T03:34:49.163Z,21.73
2022-10-04T03:37:21.646Z,25.45
2022-10-04T03:39:52.807Z,19.25
2022-10-04T03:42:29.897Z,19.15
2022-10-04T03:45:02.152Z,25.08
2022-10-04T03:47:32.593Z,22.40
2022-10-04T03:50:07.010Z,20.70
2022-10-04T03:52:38.001Z,19.63
2022-10-04T03:55:08.196Z,22.08
2022-10-04T03:57:37.866Z,21.95
2022-10-04T04:00:07.245Z,22.17
2022-10-04T04:02:46.378Z,20.23
2022-10-04T04:05:19.015Z,21.63
2022-10-04T04:08:24.043Z,20.77
2022-10-04T04:10:55.229Z,19.17
2022-10-04T04:13:46.335Z,20.48
2022-10-04T04:16:14.995Z,25.70
2022-10-04T04:18:45.204Z,19.48
2022-10-04T04:21:18.850Z,16.38
2022-10-04T04:23:56.571Z,19.13
2022-10-04T04:26:35.483Z,21.35
2022-10-04T04:29:27.297Z,23.17
2022-10-04T04:32:01.071Z,23.20
2022-10-04T04:34:32.863Z,21.77
2022-10-04T04:37:03.705Z,20.67
2022-10-04T04:39:40.065Z,25.10
2022-10-04T04:42:13.874Z,21.88
2022-10-04T04:47:35.035Z,22.92
2022-10-04T04:50:18.555Z,24.30
2022-10-04T04:52:55.000Z,24.80
2022-10-04T04:55:39.921Z,21.98
2022-10-04T04:58:21.630Z,21.10
2022-10-04T05:01:08.013Z,20.65
2022-10-04T05:03:35.712Z,19.50
2022-10-04T05:06:05.136Z,20.88
2022-10-04T05:08:41.018Z,21.30
2022-10-04T05:11:08.756Z,21.52
2022-10-04T05:13:44.714Z,23.02
2022-10-04T05:16:20.983Z,20.70
2022-10-04T05:18:57.936Z,20.17
2022-10-04T05:21:33.573Z,20.65
2022-10-04T05:24:35.216Z,21.58
2022-10-04T05:27:09.504Z,18.65
2022-10-04T05:29:41.797Z,19.98
2022-10-04T05:32:33.797Z,25.27
2022-10-04T05:35:01.812Z,24.50
2022-10-04T05:37:45.140Z,22.75
2022-10-04T05:40:15.571Z,19.52
2022-10-04T05:42:46.384Z,19.08
2022-10-04T05:45:26.078Z,22.30
2022-10-04T05:47:55.982Z,24.38
2022-10-04T05:50:43.784Z,21.65
2022-10-04T05:53:20.329Z,24.65
2022-10-04T05:55:56.184Z,28.42
2022-10-04T05:58:42.498Z,21.88
2022-10-04T06:01:10.686Z,21.42
2022-10-04T06:04:02.962Z,22.80
2022-10-04T06:06:49.377Z,22.80
2022-10-04T06:09:51.717Z,26.55
2022-10-04T06:12:47.057Z,23.70
2022-10-04T06:15:21.928Z,22.17
2022-10-04T06:18:00.172Z,25.20
2022-10-04T06:20:46.317Z,26.38
2022-10-04T06:23:18.750Z,27.63
2022-10-04T06:25:56.718Z,26.92
2022-10-04T06:28:27.181Z,24.60
2022-10-04T06:31:19.528Z,20.95
2022-10-04T06:33:54.627Z,23.52
2022-10-04T06:36:31.053Z,21.65
2022-10-04T06:39:27.727Z,26.77
2022-10-04T06:41:59.516Z,24.27
2022-10-04T06:44:51.793Z,24.60
2022-10-04T06:47:37.767Z,24.35
2022-10-04T06:50:46.277Z,22.77
2022-10-04T06:53:50.722Z,22.75
2022-10-04T06:56:27.398Z,24.95
2022-10-04T06:59:17.515Z,22.60
2022-10-04T07:01:58.838Z,23.88
2022-10-04T07:05:09.919Z,25.70
2022-10-04T07:07:45.046Z,23.25
2022-10-04T07:10:32.217Z,27.95
2022-10-04T07:13:06.742Z,25.83
2022-10-04T07:15:44.807Z,23.90
2022-10-04T07:18:24.250Z,26.77
2022-10-04T07:21:01.089Z,28.60
2022-10-04T07:23:35.597Z,24.98
2022-10-04T07:26:16.931Z,20.65
2022-10-04T07:29:04.977Z,26.98
2022-10-04T07:31:35.436Z,28.40
2022-10-04T07:34:12.045Z,23.13
2022-10-04T07:36:49.057Z,24.63
2022-10-04T07:39:52.574Z,22.08
2022-10-04T07:42:31.809Z,24.47
2022-10-04T07:45:22.055Z,23.67
2022-10-04T07:47:50.351Z,27.17
2022-10-04T07:50:22.809Z,25.08
2022-10-04T07:52:54.678Z,26.38
2022-10-04T07:55:32.287Z,24.58
2022-10-04T07:58:18.690Z,27.67
2022-10-04T08:00:57.084Z,24.48
2022-10-04T08:03:44.722Z,25.02
2022-10-04T08:06:20.494Z,21.50
2022-10-04T08:09:27.673Z,22.48
2022-10-04T08:12:17.789Z,25.17
2022-10-04T08:15:13.880Z,21.58
2022-10-04T08:18:10.266Z,17.77
2022-10-04T08:20:56.828Z,20.95
2022-10-04T08:23:51.935Z,19.13
2022-10-04T08:26:38.547Z,16.88
2022-10-04T08:29:43.940Z,22.92
2022-10-04T08:32:36.279Z,18.98
2022-10-04T08:35:32.806Z,16.27
2022-10-04T08:38:27.240Z,16.23
2022-10-04T08:41:32.859Z,14.07
2022-10-04T08:44:06.758Z,14.98
2022-10-04T08:47:21.167Z,12.20
2022-10-04T08:50:07.710Z,12.93
2022-10-04T08:52:41.326Z,13.63
2022-10-04T08:55:28.004Z,15.77
2022-10-04T08:58:16.108Z,12.80
2022-10-04T09:01:01.754Z,10.77
2022-10-04T09:03:51.062Z,14.32
2022-10-04T09:06:27.396Z,8.93
2022-10-04T09:09:49.411Z,14.75
2022-10-04T09:12:44.957Z,7.20
2022-10-04T09:15:31.084Z,10.95
2022-10-04T09:18:22.551Z,9.80
2022-10-04T09:21:11.584Z,12.93
2022-10-04T09:24:02.904Z,8.52
2022-10-04T09:26:44.919Z,8.98
2022-10-04T09:29:22.153Z,10.77
2022-10-04T09:32:16.882Z,13.68
2022-10-04T09:35:06.421Z,11.38
2022-10-04T09:37:48.870Z,10.15
2022-10-04T09:40:46.511Z,9.45
2022-10-04T09:43:33.557Z,11.77
2022-10-04T09:46:10.199Z,10.15
2022-10-04T09:49:10.028Z,12.40
2022-10-04T09:51:52.993Z,10.32
2022-10-04T09:54:56.916Z,15.40
2022-10-04T09:58:03.368Z,11.90
2022-10-04T10:00:40.052Z,10.65
2022-10-04T10:03:26.355Z,13.82
2022-10-04T10:06:16.113Z,9.63
2022-10-04T10:08:55.565Z,10.27
2022-10-04T10:12:07.873Z,10.52
2022-10-04T10:15:00.410Z,9.82
2022-10-04T10:18:01.819Z,8.77
2022-10-04T10:20:51.189Z,6.95
2022-10-04T10:23:28.017Z,6.93
2022-10-04T10:26:08.043Z,13.68
2022-10-04T10:28:41.610Z,6.28
2022-10-04T10:31:47.730Z,9.32
2022-10-04T10:34:37.765Z,8.52
2022-10-04T10:37:35.810Z,7.95
2022-10-04T10:40:33.444Z,7.97
2022-10-04T10:43:25.838Z,8.75
2022-10-04T10:46:24.561Z,10.05
2022-10-04T10:49:13.671Z,7.72
2022-10-04T10:51:56.118Z,8.63
2022-10-04T10:54:40.697Z,8.38
2022-10-04T10:57:34.228Z,7.53
2022-10-04T11:00:14.743Z,7.40
2022-10-04T11:02:50.062Z,5.45
2022-10-04T11:05:24.522Z,5.05
2022-10-04T11:08:24.478Z,5.53
2022-10-04T11:11:16.682Z,7.97
2022-10-04T11:13:59.587Z,6.25
2022-10-04T11:16:42.177Z,9.43
2022-10-04T11:19:47.581Z,6.53
2022-10-04T11:22:38.510Z,5.95
2022-10-04T11:25:40.213Z,5.32
2022-10-04T11:28:46.842Z,8.55
2022-10-04T11:31:41.914Z,6.85
2022-10-04T11:34:31.179Z,9.73
2022-10-04T11:37:13.895Z,7.10
2022-10-04T11:40:18.760Z,5.73
2022-10-04T11:43:11.467Z,6.72
2022-10-04T11:46:18.025Z,8.35
2022-10-04T11:49:01.055Z,5.10
2022-10-04T11:52:04.760Z,6.68
2022-10-04T11:54:59.126Z,7.85
2022-10-04T11:57:37.283Z,5.47
2022-10-04T12:00:16.701Z,7.30
2022-10-04T12:03:05.789Z,6.90
2022-10-04T12:06:01.293Z,10.00
2022-10-04T12:08:48.383Z,5.82
2022-10-04T12:11:16.580Z,8.68
2022-10-04T12:13:59.093Z,6.93
2022-10-04T12:16:39.802Z,5.93
2022-10-04T12:19:45.043Z,8.75
2022-10-04T12:22:44.296Z,9.35
2022-10-04T12:25:23.918Z,7.25
2022-10-04T12:28:11.836Z,6.68
2022-10-04T12:30:54.833Z,9.07
2022-10-04T12:33:42.770Z,10.98
2022-10-04T12:36:25.680Z,7.13
2022-10-04T12:39:04.424Z,8.25
2022-10-04T12:42:15.715Z,8.75
2022-10-04T12:45:15.007Z,6.20
2022-10-04T12:48:19.428Z,5.82
2022-10-04T12:51:28.960Z,7.93
2022-10-04T12:54:35.597Z,12.38
2022-10-04T12:57:38.634Z,8.45
2022-10-04T13:00:23.963Z,8.63
2022-10-04T13:03:03.881Z,8.63
2022-10-04T13:05:43.388Z,10.13
2022-10-04T13:08:19.965Z,7.72
2022-10-04T13:10:57.200Z,6.82
2022-10-04T13:13:41.162Z,9.10
2022-10-04T13:19:41.283Z,10.73
2022-10-04T13:22:55.199Z,10.82
2022-10-04T13:25:59.925Z,12.77
2022-10-04T13:28:49.068Z,7.47
2022-10-04T13:31:26.675Z,7.30
2022-10-04T13:34:03.784Z,10.63
2022-10-04T13:36:54.282Z,6.65
2022-10-04T13:39:27.934Z,7.10
2022-10-04T13:42:24.702Z,6.85
2022-10-04T13:45:11.089Z,8.75
2022-10-04T13:47:54.483Z,9.43
2022-10-04T13:50:34.066Z,7.65
2022-10-04T13:53:24.552Z,10.77
2022-10-04T13:56:36.963Z,9.52
2022-10-04T13:59:49.315Z,8.68
2022-10-04T14:02:35.265Z,10.27
2022-10-04T14:05:32.111Z,8.13
2022-10-04T14:08:16.119Z,6.97
2022-10-04T14:11:02.133Z,9.85
2022-10-04T14:13:36.562Z,11.05
2022-10-04T14:16:34.384Z,11.85
2022-10-04T14:19:25.352Z,7.25
2022-10-04T14:22:26.875Z,12.82
2022-10-04T14:25:13.914Z,11.55
2022-10-04T14:27:53.719Z,10.77
2022-10-04T14:30:27.400Z,9.80
2022-10-04T14:32:56.028Z,10.02
2022-10-04T14:35:27.099Z,8.95
2022-10-04T14:38:09.818Z,12.52
2022-10-04T14:41:05.112Z,8.53
2022-10-04T14:44:10.595Z,11.55
2022-10-04T14:46:56.662Z,8.95
2022-10-04T14:50:00.343Z,8.73
2022-10-04T14:52:40.005Z,6.60
2022-10-04T14:55:29.544Z,13.10
2022-10-04T14:58:36.386Z,7.53
2022-10-04T15:01:23.512Z,7.55
2022-10-04T15:04:14.066Z,7.10
2022-10-04T15:06:49.877Z,9.07
2022-10-04T15:09:29.979Z,11.48
2022-10-04T15:15:14.423Z,8.32
2022-10-04T15:17:51.841Z,11.65
2022-10-04T15:20:55.465Z,7.32
2022-10-04T15:23:48.896Z,7.70
2022-10-04T15:26:19.598Z,12.30
2022-10-04T15:28:50.380Z,12.95
2022-10-04T15:31:39.157Z,13.50
2022-10-04T15:34:54.869Z,8.02
2022-10-04T15:37:39.695Z,11.57
2022-10-04T15:40:33.290Z,12.63
2022-10-04T15:43:20.616Z,14.98
2022-10-04T15:46:08.712Z,14.07
2022-10-04T15:48:55.275Z,11.40
2022-10-04T15:51:58.155Z,11.38
2022-10-04T15:55:03.080Z,10.48
2022-10-04T15:57:46.138Z,15.25
2022-10-04T16:00:27.088Z,11.15
2022-10-04T16:03:03.919Z,12.52
2022-10-04T16:05:37.599Z,10.23
2022-10-04T16:10:58.708Z,13.10
2022-10-04T16:13:47.012Z,12.30
2022-10-04T16:16:17.796Z,13.82
2022-10-04T16:19:21.933Z,15.13
2022-10-04T16:22:08.994Z,15.68
2022-10-04T16:24:50.599Z,16.33
2022-10-04T16:27:57.324Z,13.68
2022-10-04T16:30:38.583Z,11.00
2022-10-04T16:33:26.553Z,17.95
2022-10-04T16:36:09.420Z,13.35
2022-10-04T16:39:07.569Z,13.10
2022-10-04T16:42:15.400Z,13.35
2022-10-04T16:44:55.324Z,11.75
2022-10-04T16:47:30.055Z,13.27
2022-10-04T16:50:00.737Z,12.13
2022-10-04T16:52:34.638Z,9.73
2022-10-04T16:55:28.673Z,17.30
2022-10-04T16:58:27.146Z,11.73
2022-10-04T17:01:22.958Z,11.68
2022-10-04T17:04:03.871Z,10.40
2022-10-04T17:06:49.465Z,15.65
2022-10-04T17:09:38.767Z,16.75
2022-10-04T17:12:29.783Z,17.30
2022-10-04T17:15:28.368Z,13.48
2022-10-04T17:18:20.513Z,18.65
2022-10-04T17:20:59.633Z,16.65
2022-10-04T17:24:06.709Z,18.73
2022-10-04T17:26:53.037Z,15.75
2022-10-04T17:29:39.996Z,12.85
2022-10-04T17:32:25.782Z,19.63
2022-10-04T17:35:31.557Z,17.20
2022-10-04T17:38:17.520Z,17.00
2022-10-04T17:40:56.982Z,15.93
2022-10-04T17:43:45.167Z,17.90
2022-10-04T17:46:33.587Z,13.85
2022-10-04T17:49:30.782Z,18.98
2022-10-04T17:52:22.542Z,17.95
2022-10-04T17:55:18.408Z,16.27
2022-10-04T17:58:06.745Z,13.90
2022-10-04T18:01:08.011Z,17.45
2022-10-04T18:03:52.309Z,17.95
2022-10-04T18:06:48.131Z,14.07
2022-10-04T18:09:36.725Z,17.25
2022-10-04T18:12:24.303Z,15.63
2022-10-04T18:14:59.137Z,19.48
2022-10-04T18:17:36.617Z,14.13
2022-10-04T18:20:27.264Z,19.20
2022-10-04T18:23:15.011Z,20.02
2022-10-04T18:25:43.331Z,15.48
2022-10-04T18:28:13.682Z,35.35
2022-10-04T18:30:51.379Z,20.20
2022-10-04T18:33:26.819Z,16.63
2022-10-04T18:36:20.011Z,19.50
2022-10-04T18:39:03.696Z,15.40
2022-10-04T18:41:50.275Z,17.00
2022-10-04T18:44:21.836Z,16.67
2022-10-04T18:46:56.755Z,14.23
2022-10-04T18:49:31.089Z,17.10
2022-10-04T18:52:13.544Z,20.60
2022-10-04T18:54:54.174Z,21.13
2022-10-04T18:57:58.750Z,18.52
2022-10-04T19:00:52.042Z,19.45
2022-10-04T19:03:55.095Z,19.83
2022-10-04T19:06:33.132Z,17.08
2022-10-04T19:09:32.806Z,17.13
2022-10-04T19:12:05.461Z,21.50
2022-10-04T19:14:42.619Z,16.02
2022-10-04T19:17:26.103Z,25.13
2022-10-04T19:20:18.551Z,20.25
2022-10-04T19:23:20.011Z,24.75
2022-10-04T19:26:26.289Z,21.83
2022-10-04T19:28:41.170Z,34.58
2022-10-04T19:31:26.338Z,20.08
2022-10-04T19:34:10.150Z,19.38
2022-10-04T19:37:09.067Z,19.25
2022-10-04T19:39:50.838Z,17.23
2022-10-04T19:42:50.921Z,17.27
2022-10-04T19:45:41.293Z,18.45
2022-10-04T19:48:23.373Z,18.83
2022-10-04T19:51:16.773Z,19.23
2022-10-04T19:53:46.022Z,21.70
2022-10-04T19:56:20.008Z,19.30
2022-10-04T19:59:11.009Z,23.92
2022-10-04T20:01:40.078Z,25.88
2022-10-04T20:04:33.214Z,19.63
2022-10-04T20:07:04.957Z,19.55
2022-10-04T20:09:41.342Z,20.27
2022-10-04T20:12:41.154Z,17.85
2022-10-04T20:15:28.887Z,21.17
2022-10-04T20:17:58.393Z,25.58
2022-10-04T20:20:39.067Z,17.73
2022-10-04T20:23:08.904Z,23.60
2022-10-04T20:25:49.387Z,20.67
2022-10-04T20:28:29.006Z,21.17
2022-10-04T20:31:01.160Z,21.85
2022-10-04T20:33:39.252Z,22.67
2022-10-04T20:36:09.650Z,24.88
2022-10-04T20:38:44.926Z,22.33
2022-10-04T20:41:28.048Z,18.02
2022-10-04T20:44:01.568Z,22.60
2022-10-04T20:46:38.265Z,25.70
2022-10-04T20:49:16.160Z,21.65
2022-10-04T20:51:48.642Z,18.77
2022-10-04T20:54:21.080Z,23.83
2022-10-04T20:56:51.592Z,19.58
2022-10-04T20:59:23.129Z,21.05
2022-10-04T21:02:16.994Z,19.98
2022-10-04T21:04:48.597Z,25.35
2022-10-04T21:07:19.591Z,18.25
2022-10-04T21:09:47.881Z,27.40
2022-10-04T21:12:38.100Z,22.20
2022-10-04T21:15:07.584Z,19.92
2022-10-04T21:17:37.342Z,24.33
2022-10-04T21:20:13.468Z,21.63
2022-10-04T21:22:41.624Z,21.63
2022-10-04T21:25:29.305Z,19.63
2022-10-04T21:28:42.902Z,22.38
2022-10-04T21:31:12.103Z,22.13
2022-10-04T21:33:41.229Z,24.08
2022-10-04T21:36:11.009Z,17.50
2022-10-04T21:38:38.611Z,21.75
2022-10-04T21:41:06.560Z,24.23
2022-10-04T21:43:34.912Z,19.10
2022-10-04T21:46:03.699Z,18.17
2022-10-04T21:48:31.850Z,20.35
2022-10-04T21:50:59.371Z,20.83
2022-10-04T21:53:27.237Z,24.08
2022-10-04T21:55:56.488Z,22.73
2022-10-04T21:58:23.981Z,27.73
2022-10-04T22:00:52.613Z,19.25
2022-10-04T22:03:20.739Z,23.70
2022-10-04T22:05:49.108Z,31.35
2022-10-04T22:08:16.978Z,28.27
2022-10-04T22:10:45.668Z,24.88
2022-10-04T22:13:13.538Z,27.40
2022-10-04T22:15:41.047Z,25.10
2022-10-04T22:18:08.606Z,26.83
2022-10-04T22:20:37.060Z,24.13
2022-10-04T22:23:11.037Z,41.88
2022-10-04T22:25:40.409Z,27.55
2022-10-04T22:28:21.044Z,22.50
2022-10-04T22:30:49.884Z,25.65
2022-10-04T22:33:32.822Z,22.77
2022-10-04T22:36:26.428Z,23.30
2022-10-04T22:39:09.199Z,27.02
2022-10-04T22:41:40.550Z,22.05
2022-10-04T22:44:20.440Z,23.83
2022-10-04T22:46:53.254Z,31.05
2022-10-04T22:49:24.707Z,26.27
2022-10-04T22:51:54.081Z,19.75
2022-10-04T22:54:25.584Z,18.35
2022-10-04T22:56:54.561Z,23.80
2022-10-04T22:59:34.765Z,24.83
2022-10-04T23:02:10.583Z,25.33
2022-10-04T23:04:44.514Z,23.70
2022-10-04T23:07:12.863Z,19.70
2022-10-04T23:09:41.813Z,24.67
2022-10-04T23:12:09.833Z,22.00
2022-10-04T23:14:39.203Z,22.52
2022-10-04T23:17:24.116Z,26.35
2022-10-04T23:20:06.741Z,27.50
2022-10-04T23:22:34.348Z,25.08
2022-10-04T23:25:02.430Z,22.15
2022-10-04T23:27:30.247Z,27.48
2022-10-04T23:30:02.949Z,25.45
2022-10-04T23:32:33.102Z,20.15
2022-10-04T23:35:01.974Z,23.23
2022-10-04T23:37:32.501Z,19.70
2022-10-04T23:40:00.068Z,19.55
2022-10-04T23:42:32.255Z,24.90
2022-10-04T23:45:02.028Z,19.48
2022-10-04T23:47:34.656Z,21.30
2022-10-04T23:50:17.975Z,22.73
2022-10-04T23:52:45.669Z,23.25
2022-10-04T23:55:22.395Z,18.30
2022-10-04T23:57:51.320Z,21.08
